createdAt,value
2018-08-28T00:02:16.638Z,63.28
2018-08-28T00:04:47.289Z,63.57
2018-08-28T00:07:17.986Z,63.69
2018-08-28T00:09:48.585Z,63.85
2018-08-28T00:12:19.337Z,63.35
2018-08-28T00:14:50.025Z,63.58
2018-08-28T00:17:20.668Z,63.72
2018-08-28T00:19:51.308Z,63.88
2018-08-28T00:22:22.101Z,64.02
2018-08-28T00:24:52.782Z,63.68
2018-08-28T00:27:23.536Z,63.81
2018-08-28T00:29:54.156Z,64.11
2018-08-28T00:32:24.792Z,64.29
2018-08-28T00:34:55.428Z,64.13
2018-08-28T00:37:26.033Z,63.83
2018-08-28T00:39:56.696Z,64.39
2018-08-28T00:42:27.364Z,64.42
2018-08-28T00:44:58.021Z,64.61
2018-08-28T00:47:28.630Z,64.67
2018-08-28T00:49:59.253Z,64.95
2018-08-28T00:52:29.959Z,64.22
2018-08-28T00:55:00.568Z,64.43
2018-08-28T00:57:31.200Z,64.67
2018-08-28T01:00:02.136Z,64.90
2018-08-28T01:02:32.746Z,64.65
2018-08-28T01:05:03.433Z,64.72
2018-08-28T01:07:34.101Z,64.79
2018-08-28T01:10:05.285Z,64.82
2018-08-28T01:12:35.946Z,64.57
2018-08-28T01:15:07.560Z,64.73
2018-08-28T01:17:38.205Z,65.17
2018-08-28T01:20:08.910Z,65.39
2018-08-28T01:22:39.755Z,65.28
2018-08-28T01:25:10.400Z,65.46
2018-08-28T01:27:41.053Z,65.65
2018-08-28T01:30:11.720Z,65.74
2018-08-28T01:32:42.332Z,65.77
2018-08-28T01:35:12.932Z,65.65
2018-08-28T01:37:43.552Z,65.69
2018-08-28T01:40:14.183Z,66.13
2018-08-28T01:42:44.895Z,65.54
2018-08-28T01:45:15.484Z,65.54
2018-08-28T01:47:46.122Z,65.22
2018-08-28T01:50:17.206Z,65.52
2018-08-28T01:52:47.909Z,65.41
2018-08-28T01:55:18.664Z,65.69
2018-08-28T01:57:49.246Z,66.31
2018-08-28T02:00:19.891Z,66.17
2018-08-28T02:02:50.531Z,66.82
2018-08-28T02:05:21.177Z,67.29
2018-08-28T02:07:51.792Z,66.60
2018-08-28T02:10:22.448Z,67.08
2018-08-28T02:12:53.030Z,66.46
2018-08-28T02:15:23.668Z,66.80
2018-08-28T02:17:54.280Z,67.12
2018-08-28T02:20:24.884Z,67.29
2018-08-28T02:22:55.516Z,67.64
2018-08-28T02:25:26.148Z,67.68
2018-08-28T02:27:56.769Z,67.47
2018-08-28T02:30:27.372Z,67.75
2018-08-28T02:32:57.998Z,67.51
2018-08-28T02:35:28.739Z,67.57
2018-08-28T02:37:59.442Z,67.88
2018-08-28T02:40:30.148Z,67.48
2018-08-28T02:43:00.815Z,67.88
2018-08-28T02:45:31.560Z,68.09
2018-08-28T02:48:02.174Z,67.54
2018-08-28T02:50:32.988Z,67.89
2018-08-28T02:53:03.962Z,68.28
2018-08-28T02:55:34.624Z,68.31
2018-08-28T02:58:05.277Z,68.20
2018-08-28T03:00:35.906Z,68.09
2018-08-28T03:03:06.920Z,68.18
2018-08-28T03:05:37.533Z,68.30
2018-08-28T03:08:08.207Z,68.63
2018-08-28T03:10:38.907Z,68.08
2018-08-28T03:13:09.578Z,68.08
2018-08-28T03:15:40.349Z,68.61
2018-08-28T03:18:10.990Z,68.32
2018-08-28T03:20:41.675Z,68.64
2018-08-28T03:23:12.359Z,68.66
2018-08-28T03:25:43.032Z,69.08
2018-08-28T03:28:13.743Z,69.30
2018-08-28T03:30:44.417Z,69.21
2018-08-28T03:33:15.074Z,68.99
2018-08-28T03:35:45.772Z,69.64
2018-08-28T03:38:16.457Z,69.13
2018-08-28T03:40:47.108Z,69.08
2018-08-28T03:43:18.011Z,69.63
2018-08-28T03:45:49.056Z,69.30
2018-08-28T03:48:19.696Z,69.27
2018-08-28T03:50:50.328Z,69.59
2018-08-28T03:53:21.519Z,69.57
2018-08-28T03:55:52.142Z,69.43
2018-08-28T03:58:22.814Z,69.21
2018-08-28T04:00:53.445Z,69.44
2018-08-28T04:03:24.116Z,70.00
2018-08-28T04:05:54.844Z,70.14
2018-08-28T04:08:25.776Z,70.39
2018-08-28T04:10:56.406Z,70.16
2018-08-28T04:13:27.016Z,70.15
2018-08-28T04:15:57.830Z,70.14
2018-08-28T04:18:28.453Z,70.28
2018-08-28T04:20:59.155Z,70.56
2018-08-28T04:23:29.817Z,70.63
2018-08-28T04:26:00.480Z,70.61
2018-08-28T04:28:31.148Z,70.32
2018-08-28T04:31:02.050Z,70.26
2018-08-28T04:33:32.666Z,70.84
2018-08-28T04:36:03.357Z,70.77
2018-08-28T04:38:33.961Z,70.50
2018-08-28T04:41:04.643Z,70.51
2018-08-28T04:43:35.387Z,70.62
2018-08-28T04:46:06.115Z,71.17
2018-08-28T04:48:36.869Z,70.83
2018-08-28T04:51:07.601Z,70.93
2018-08-28T04:53:38.302Z,70.75
2018-08-28T04:56:09.039Z,71.05
2018-08-28T04:58:39.737Z,70.91
2018-08-28T05:01:10.412Z,71.14
2018-08-28T05:03:41.085Z,71.07
2018-08-28T05:06:11.812Z,70.53
2018-08-28T05:08:42.438Z,70.87
2018-08-28T05:11:13.181Z,69.99
2018-08-28T05:13:43.821Z,70.99
2018-08-28T05:16:14.542Z,70.53
2018-08-28T05:18:45.133Z,70.98
2018-08-28T05:21:15.915Z,71.22
2018-08-28T05:23:46.519Z,70.56
2018-08-28T05:26:17.299Z,70.61
2018-08-28T05:28:48.030Z,71.10
2018-08-28T05:31:18.776Z,70.62
2018-08-28T05:33:49.450Z,70.70
2018-08-28T05:36:20.110Z,71.12
2018-08-28T05:38:50.770Z,70.93
2018-08-28T05:41:21.452Z,70.13
2018-08-28T05:43:52.136Z,70.22
2018-08-28T05:46:22.824Z,70.17
2018-08-28T05:48:53.487Z,70.39
2018-08-28T05:51:24.182Z,70.11
2018-08-28T05:53:54.811Z,70.30
2018-08-28T05:56:25.541Z,70.07
2018-08-28T05:58:56.170Z,70.35
2018-08-28T06:01:26.866Z,70.05
2018-08-28T06:03:57.512Z,70.41
2018-08-28T06:06:28.220Z,70.16
2018-08-28T06:08:58.860Z,69.89
2018-08-28T06:11:29.490Z,70.18
2018-08-28T06:14:00.219Z,70.12
2018-08-28T06:16:30.919Z,70.24
2018-08-28T06:19:01.617Z,69.97
2018-08-28T06:21:32.280Z,69.84
2018-08-28T06:24:02.920Z,69.54
2018-08-28T06:26:33.614Z,69.73
2018-08-28T06:29:04.246Z,69.57
2018-08-28T06:31:34.916Z,69.72
2018-08-28T06:34:05.656Z,69.84
2018-08-28T06:36:36.349Z,69.83
2018-08-28T06:39:09.099Z,69.88
2018-08-28T06:41:40.159Z,69.38
2018-08-28T06:44:10.824Z,69.53
2018-08-28T06:46:41.459Z,69.14
2018-08-28T06:49:12.068Z,68.80
2018-08-28T06:51:42.779Z,68.26
2018-08-28T06:54:13.587Z,67.85
2018-08-28T06:56:44.287Z,67.78
2018-08-28T06:59:14.933Z,67.70
2018-08-28T07:01:45.591Z,66.86
2018-08-28T07:04:17.245Z,67.43
2018-08-28T07:06:47.921Z,67.08
2018-08-28T07:09:18.739Z,67.04
2018-08-28T07:11:49.411Z,66.95
2018-08-28T07:14:20.090Z,67.56
2018-08-28T07:16:50.749Z,67.47
2018-08-28T07:19:21.468Z,67.22
2018-08-28T07:21:52.117Z,66.36
2018-08-28T07:24:22.838Z,66.74
2018-08-28T07:26:53.496Z,66.70
2018-08-28T07:29:24.128Z,66.62
2018-08-28T07:31:54.915Z,66.17
2018-08-28T07:34:25.480Z,65.97
2018-08-28T07:36:56.103Z,65.14
2018-08-28T07:39:26.752Z,65.43
2018-08-28T07:41:57.367Z,64.58
2018-08-28T07:44:28.067Z,64.16
2018-08-28T07:46:58.775Z,63.73
2018-08-28T07:49:29.447Z,63.16
2018-08-28T07:52:00.098Z,62.71
2018-08-28T07:54:30.741Z,61.31
2018-08-28T07:57:01.464Z,61.00
2018-08-28T07:59:32.112Z,60.98
2018-08-28T08:02:02.956Z,60.80
2018-08-28T08:04:34.059Z,59.22
2018-08-28T08:07:05.167Z,57.90
2018-08-28T08:09:35.822Z,56.08
2018-08-28T08:12:06.645Z,55.07
2018-08-28T08:14:37.296Z,54.13
2018-08-28T08:17:08.181Z,52.97
2018-08-28T08:19:38.896Z,52.22
2018-08-28T08:22:09.597Z,50.51
2018-08-28T08:24:40.610Z,50.10
2018-08-28T08:27:11.224Z,48.51
2018-08-28T08:29:42.073Z,49.00
2018-08-28T08:32:12.740Z,47.38
2018-08-28T08:34:43.400Z,47.23
2018-08-28T08:37:14.192Z,47.33
2018-08-28T08:39:44.828Z,48.98
2018-08-28T08:42:15.540Z,49.76
2018-08-28T08:44:46.203Z,49.27
2018-08-28T08:47:16.817Z,48.78
2018-08-28T08:49:47.491Z,48.58
2018-08-28T08:52:18.433Z,46.92
2018-08-28T08:57:18.474Z,47.17
2018-08-28T08:59:49.084Z,43.84
2018-08-28T09:02:19.700Z,44.17
2018-08-28T09:04:50.296Z,44.65
2018-08-28T09:07:20.929Z,44.95
2018-08-28T09:09:51.685Z,44.48
2018-08-28T09:12:22.416Z,43.52
2018-08-28T09:14:53.108Z,40.91
2018-08-28T09:17:23.770Z,40.69
2018-08-28T09:19:54.513Z,41.59
2018-08-28T09:22:25.104Z,41.36
2018-08-28T09:24:55.808Z,41.59
2018-08-28T09:27:26.688Z,40.49
2018-08-28T09:29:57.336Z,40.04
2018-08-28T09:32:28.086Z,40.67
2018-08-28T09:34:58.710Z,40.12
2018-08-28T09:37:29.385Z,41.05
2018-08-28T09:40:00.052Z,39.86
2018-08-28T09:42:30.688Z,36.57
2018-08-28T09:45:01.352Z,36.92
2018-08-28T09:47:31.968Z,36.30
2018-08-28T09:50:02.602Z,37.43
2018-08-28T09:52:33.238Z,36.22
2018-08-28T09:55:04.031Z,35.86
2018-08-28T09:57:34.752Z,34.69
2018-08-28T10:00:05.857Z,35.76
2018-08-28T10:02:37.446Z,37.09
2018-08-28T10:05:08.138Z,37.31
2018-08-28T10:07:38.815Z,35.72
2018-08-28T10:10:09.524Z,36.42
2018-08-28T10:12:40.276Z,41.29
2018-08-28T10:15:11.151Z,34.80
2018-08-28T10:17:42.102Z,35.05
2018-08-28T10:20:13.066Z,36.60
2018-08-28T10:22:43.794Z,36.06
2018-08-28T10:25:14.404Z,37.46
2018-08-28T10:27:45.199Z,34.11
2018-08-28T10:30:15.867Z,33.80
2018-08-28T10:32:46.556Z,33.32
2018-08-28T10:35:17.248Z,34.89
2018-08-28T10:37:47.942Z,33.96
2018-08-28T10:40:19.594Z,35.58
2018-08-28T10:42:50.284Z,34.01
2018-08-28T10:45:21.004Z,35.50
2018-08-28T10:47:51.696Z,36.19
2018-08-28T10:51:25.795Z,37.83
2018-08-28T10:53:56.455Z,37.24
2018-08-28T10:56:27.129Z,34.81
2018-08-28T10:58:57.839Z,34.86
2018-08-28T11:01:28.617Z,37.76
2018-08-28T11:03:59.284Z,34.15
2018-08-28T11:06:29.997Z,34.73
2018-08-28T11:09:00.687Z,33.83
2018-08-28T11:11:31.482Z,34.95
2018-08-28T11:14:02.235Z,35.64
2018-08-28T11:16:32.967Z,36.72
2018-08-28T11:19:03.745Z,36.56
2018-08-28T11:21:34.521Z,35.86
2018-08-28T11:24:05.290Z,35.54
2018-08-28T11:26:36.047Z,32.07
2018-08-28T11:29:06.817Z,31.14
2018-08-28T11:31:37.593Z,33.69
2018-08-28T11:34:08.364Z,30.56
2018-08-28T11:36:39.057Z,30.98
2018-08-28T11:39:10.020Z,30.16
2018-08-28T11:41:40.744Z,31.24
2018-08-28T11:44:11.534Z,29.95
2018-08-28T11:46:42.274Z,31.56
2018-08-28T11:49:13.073Z,31.36
2018-08-28T11:51:43.851Z,32.41
2018-08-28T11:57:03.641Z,31.20
2018-08-28T11:59:34.378Z,31.68
2018-08-28T12:02:05.233Z,32.97
2018-08-28T12:04:36.028Z,33.72
2018-08-28T12:07:07.405Z,34.34
2018-08-28T12:09:38.018Z,34.68
2018-08-28T12:12:09.870Z,36.16
2018-08-28T12:14:40.556Z,34.50
2018-08-28T12:17:11.250Z,33.56
2018-08-28T12:19:41.920Z,34.11
2018-08-28T12:22:12.698Z,33.22
2018-08-28T12:24:43.391Z,33.70
2018-08-28T12:27:14.083Z,33.56
2018-08-28T12:29:44.893Z,34.17
2018-08-28T12:32:15.595Z,35.15
2018-08-28T12:34:46.297Z,33.68
2018-08-28T12:37:17.127Z,34.76
2018-08-28T12:39:47.927Z,35.30
2018-08-28T12:42:18.907Z,33.41
2018-08-28T12:44:49.851Z,32.53
2018-08-28T12:47:20.564Z,32.92
2018-08-28T12:49:51.413Z,32.01
2018-08-28T12:52:22.121Z,30.21
2018-08-28T12:54:52.930Z,28.81
2018-08-28T12:57:23.831Z,29.70
2018-08-28T13:00:09.146Z,30.05
2018-08-28T13:02:39.816Z,29.65
2018-08-28T13:05:10.586Z,28.87
2018-08-28T13:07:41.288Z,29.45
2018-08-28T13:10:12.007Z,27.68
2018-08-28T13:12:42.688Z,28.60
2018-08-28T13:15:13.459Z,27.57
2018-08-28T13:17:44.359Z,29.52
2018-08-28T13:20:15.077Z,29.58
2018-08-28T13:22:45.748Z,28.59
2018-08-28T13:25:16.483Z,29.15
2018-08-28T13:27:47.094Z,28.18
2018-08-28T13:30:17.771Z,28.79
2018-08-28T13:32:48.505Z,28.91
2018-08-28T13:35:19.135Z,28.11
2018-08-28T13:37:49.780Z,26.99
2018-08-28T13:40:20.505Z,27.20
2018-08-28T13:42:51.269Z,27.56
2018-08-28T13:45:21.935Z,27.13
2018-08-28T13:47:52.560Z,27.43
2018-08-28T13:50:23.479Z,26.88
2018-08-28T13:52:54.081Z,26.64
2018-08-28T13:55:24.731Z,26.62
2018-08-28T13:57:55.449Z,25.59
2018-08-28T14:00:26.088Z,27.97
2018-08-28T14:02:56.764Z,27.38
2018-08-28T14:05:27.373Z,26.20
2018-08-28T14:07:58.033Z,27.25
2018-08-28T14:10:28.684Z,27.34
2018-08-28T14:53:41.460Z,26.62
2018-08-28T14:56:12.221Z,26.58
2018-08-28T14:58:42.869Z,26.39
2018-08-28T15:01:13.608Z,25.74
2018-08-28T15:03:44.247Z,24.92
2018-08-28T15:06:15.047Z,25.55
2018-08-28T15:08:45.681Z,26.12
2018-08-28T15:11:16.311Z,25.27
2018-08-28T15:13:47.099Z,25.49
2018-08-28T15:16:19.032Z,25.76
2018-08-28T15:18:49.935Z,25.33
2018-08-28T15:21:20.575Z,25.98
2018-08-28T15:23:51.220Z,25.29
2018-08-28T15:26:21.931Z,25.11
2018-08-28T15:28:52.707Z,25.77
2018-08-28T15:31:23.405Z,26.09
2018-08-28T15:33:54.063Z,26.34
2018-08-28T15:36:26.035Z,26.77
2018-08-28T15:38:58.047Z,27.02
2018-08-28T15:41:28.701Z,27.88
2018-08-28T15:43:59.383Z,26.65
2018-08-28T15:46:30.098Z,26.04
2018-08-28T15:49:00.885Z,27.17
2018-08-28T15:51:31.607Z,27.00
2018-08-28T15:54:02.427Z,27.50
2018-08-28T15:56:33.138Z,27.38
2018-08-28T15:59:03.851Z,27.17
2018-08-28T16:01:34.496Z,27.31
2018-08-28T16:04:05.183Z,27.57
2018-08-28T16:06:35.882Z,28.23
2018-08-28T16:09:06.752Z,28.22
2018-08-28T16:11:37.414Z,27.91
2018-08-28T16:14:08.044Z,27.86
2018-08-28T16:16:38.644Z,28.40
2018-08-28T16:19:09.339Z,27.24
2018-08-28T16:21:45.950Z,28.40
2018-08-28T16:24:16.741Z,29.00
2018-08-28T16:26:47.468Z,28.84
2018-08-28T16:29:18.143Z,29.43
2018-08-28T16:31:48.843Z,30.34
2018-08-28T16:34:19.515Z,30.08
2018-08-28T16:36:50.130Z,30.53
2018-08-28T16:39:20.769Z,30.46
2018-08-28T16:41:51.375Z,31.15
2018-08-28T16:44:21.992Z,30.58
2018-08-28T16:46:52.634Z,31.69
2018-08-28T16:49:23.264Z,31.82
2018-08-28T16:51:53.944Z,31.67
2018-08-28T16:54:24.583Z,32.48
2018-08-28T16:56:55.240Z,32.05
2018-08-28T16:59:25.841Z,32.14
2018-08-28T17:01:56.550Z,32.38
2018-08-28T17:04:27.087Z,32.97
2018-08-28T17:06:57.738Z,33.71
2018-08-28T17:09:28.380Z,33.36
2018-08-28T17:11:59.049Z,33.70
2018-08-28T17:15:00.537Z,34.18
2018-08-28T17:17:31.170Z,34.42
2018-08-28T17:20:01.830Z,35.11
2018-08-28T17:22:32.472Z,35.29
2018-08-28T17:25:03.133Z,35.70
2018-08-28T17:27:33.813Z,36.51
2018-08-28T17:30:04.610Z,36.74
2018-08-28T17:32:35.290Z,36.47
2018-08-28T17:35:05.957Z,36.87
2018-08-28T17:37:36.673Z,37.45
2018-08-28T17:40:07.351Z,38.37
2018-08-28T17:42:38.128Z,38.62
2018-08-28T17:45:08.910Z,38.65
2018-08-28T17:47:39.642Z,39.69
2018-08-28T17:50:10.293Z,39.98
2018-08-28T17:52:40.941Z,40.47
2018-08-28T17:55:11.591Z,40.69
2018-08-28T17:57:42.328Z,41.25
2018-08-28T18:00:13.215Z,40.91
2018-08-28T18:02:43.962Z,42.00
2018-08-28T18:05:14.704Z,41.96
2018-08-28T18:07:45.549Z,41.70
2018-08-28T18:10:16.369Z,42.48
2018-08-28T18:12:47.021Z,42.12
2018-08-28T18:15:17.792Z,42.40
2018-08-28T18:19:10.148Z,42.76
2018-08-28T18:21:43.439Z,42.86
2018-08-28T18:24:14.180Z,43.24
2018-08-28T18:26:44.845Z,43.41
2018-08-28T18:29:15.515Z,44.06
2018-08-28T18:31:46.186Z,44.44
2018-08-28T18:34:17.057Z,44.49
2018-08-28T18:36:47.732Z,44.61
2018-08-28T18:39:18.510Z,44.64
2018-08-28T18:41:49.218Z,45.11
2018-08-28T18:44:20.132Z,44.93
2018-08-28T18:46:50.849Z,44.70
2018-08-28T18:49:21.894Z,44.76
2018-08-28T18:51:52.648Z,45.58
2018-08-28T18:54:23.405Z,46.03
2018-08-28T18:56:54.035Z,46.15
2018-08-28T18:59:24.733Z,45.62
2018-08-28T19:01:55.458Z,46.26
2018-08-28T19:04:26.156Z,46.56
2018-08-28T19:06:56.916Z,46.09
2018-08-28T19:09:27.664Z,46.83
2018-08-28T19:11:58.527Z,46.32
2018-08-28T19:14:29.238Z,45.99
2018-08-28T19:17:00.078Z,46.18
2018-08-28T19:19:30.746Z,46.88
2018-08-28T19:22:01.537Z,47.62
2018-08-28T19:24:32.360Z,46.77
2018-08-28T19:27:03.102Z,47.15
2018-08-28T19:29:33.885Z,47.25
2018-08-28T19:32:04.802Z,47.93
2018-08-28T19:34:35.603Z,47.42
2018-08-28T19:37:06.361Z,47.69
2018-08-28T19:39:37.118Z,47.99
2018-08-28T19:42:07.813Z,48.29
2018-08-28T19:44:38.531Z,48.80
2018-08-28T19:47:09.225Z,48.04
2018-08-28T19:49:39.901Z,48.44
2018-08-28T19:52:10.683Z,48.18
2018-08-28T19:54:41.378Z,48.56
2018-08-28T19:57:12.104Z,49.06
2018-08-28T19:59:42.889Z,49.84
2018-08-28T20:02:13.698Z,49.84
2018-08-28T20:04:44.428Z,49.63
2018-08-28T20:07:15.184Z,50.32
2018-08-28T20:09:46.070Z,49.94
2018-08-28T20:12:16.828Z,50.58
2018-08-28T20:14:47.555Z,50.72
2018-08-28T20:17:18.255Z,51.04
2018-08-28T20:19:49.272Z,50.44
2018-08-28T20:22:19.938Z,50.61
2018-08-28T20:24:50.798Z,50.99
2018-08-28T20:27:21.697Z,51.25
2018-08-28T20:29:52.566Z,51.52
2018-08-28T20:32:23.559Z,51.28
2018-08-28T20:34:54.400Z,51.94
2018-08-28T20:37:25.335Z,52.19
2018-08-28T20:39:56.029Z,52.05
2018-08-28T20:42:26.733Z,52.60
2018-08-28T20:44:57.516Z,52.47
2018-08-28T20:47:28.218Z,52.72
2018-08-28T20:49:58.992Z,52.61
2018-08-28T20:52:29.727Z,53.61
2018-08-28T20:55:00.397Z,53.48
2018-08-28T20:57:31.187Z,53.31
2018-08-28T21:00:01.946Z,53.56
2018-08-28T21:02:32.681Z,53.45
2018-08-28T21:05:03.428Z,54.09
2018-08-28T21:07:34.142Z,53.51
2018-08-28T21:10:04.975Z,53.29
2018-08-28T21:12:35.755Z,54.17
2018-08-28T21:15:06.606Z,54.04
2018-08-28T21:17:37.367Z,53.74
2018-08-28T21:20:08.944Z,54.28
2018-08-28T21:22:39.665Z,53.72
2018-08-28T21:25:10.528Z,54.09
2018-08-28T21:27:41.263Z,54.70
2018-08-28T21:30:12.109Z,53.88
2018-08-28T21:32:42.877Z,54.05
2018-08-28T21:35:13.624Z,54.90
2018-08-28T21:37:44.403Z,54.22
2018-08-28T21:40:15.067Z,54.41
2018-08-28T21:42:45.741Z,54.86
2018-08-28T21:45:16.475Z,54.71
2018-08-28T21:47:47.135Z,55.31
2018-08-28T21:50:17.847Z,54.95
2018-08-28T21:52:48.527Z,55.79
2018-08-28T21:55:19.236Z,55.39
2018-08-28T21:57:49.960Z,55.51
2018-08-28T22:00:20.745Z,55.67
2018-08-28T22:02:51.436Z,55.73
2018-08-28T22:05:27.354Z,55.62
2018-08-28T22:08:00.281Z,56.10
2018-08-28T22:10:31.697Z,55.95
2018-08-28T22:13:02.410Z,55.74
2018-08-28T22:15:33.123Z,56.12
2018-08-28T22:18:03.935Z,56.50
2018-08-28T22:20:34.592Z,56.66
2018-08-28T22:23:05.295Z,57.00
2018-08-28T22:25:36.028Z,57.56
2018-08-28T22:28:07.107Z,57.22
2018-08-28T22:30:37.809Z,57.30
2018-08-28T22:33:08.523Z,57.69
2018-08-28T22:35:39.326Z,57.74
2018-08-28T22:38:09.989Z,58.34
2018-08-28T22:40:40.729Z,58.75
2018-08-28T22:43:11.465Z,58.85
2018-08-28T22:45:42.178Z,58.67
2018-08-28T22:48:12.904Z,58.45
2018-08-28T22:50:43.583Z,59.02
2018-08-28T22:53:14.282Z,59.80
2018-08-28T22:55:45.005Z,59.48
2018-08-28T22:58:15.697Z,59.93
2018-08-28T23:00:46.411Z,60.43
2018-08-28T23:03:17.069Z,60.18
2018-08-28T23:05:47.765Z,60.84
2018-08-28T23:08:18.390Z,60.48
2018-08-28T23:10:49.075Z,60.95
2018-08-28T23:13:19.744Z,60.80
2018-08-28T23:15:50.404Z,60.80
2018-08-28T23:18:21.089Z,61.11
2018-08-28T23:20:51.719Z,61.03
2018-08-28T23:23:22.379Z,61.44
2018-08-28T23:25:53.106Z,61.19
2018-08-28T23:28:23.835Z,61.13
2018-08-28T23:30:54.622Z,61.41
2018-08-28T23:33:25.326Z,61.38
2018-08-28T23:35:56.009Z,61.47
2018-08-28T23:38:26.651Z,61.79
2018-08-28T23:40:57.384Z,61.67
2018-08-28T23:43:28.054Z,61.57
2018-08-28T23:45:58.807Z,61.61
2018-08-28T23:48:29.455Z,61.71
2018-08-28T23:51:00.256Z,62.53
2018-08-28T23:53:30.986Z,62.58
2018-08-28T23:56:01.803Z,62.35
2018-08-28T23:58:32.528Z,62.32
